| Date | Time | Temp. (oF) | Dew Point (oF) | Rel. Hum. (%) | Press. (in.) | Wind Dir. | Wind Speed (mph) | Hourly Rainfall (in.) |
|
|---|---|---|---|---|---|---|---|---|---|
| 1 | 12/26 | 00:00 | 28 | 22 | 78 | 30.11 | WSW | 4 | 0.00 |
| 2 | 12/25 | 23:00 | 29 | 21 | 73 | 30.11 | SW | 6 | 0.00 |
| 3 | 12/25 | 22:00 | 31 | 22 | 70 | 30.12 | SSW | 3 | 0.00 |
| 4 | 12/25 | 21:00 | 31 | 22 | 69 | 30.09 | WSW | 4 | 0.00 |
| 5 | 12/25 | 20:00 | 32 | 22 | 69 | 30.08 | W | 11 | 0.00 |
| 6 | 12/25 | 19:00 | 32 | 22 | 68 | 30.07 | S | 5 | 0.00 |
| 7 | 12/25 | 18:00 | 33 | 22 | 66 | 30.05 | WSW | 5 | 0.00 |
| 8 | 12/25 | 17:00 | 35 | 24 | 64 | 30.02 | SW | 5 | 0.00 |
| 9 | 12/25 | 16:00 | 36 | 22 | 58 | 30.00 | NW | 9 | 0.00 |
| 10 | 12/25 | 15:00 | 38 | 24 | 57 | 29.97 | SW | 13 | 0.00 |
| 11 | 12/25 | 14:00 | 36 | 21 | 56 | 29.96 | W | 11 | 0.00 |
| 12 | 12/25 | 13:00 | 37 | 23 | 59 | 29.95 | SW | 13 | 0.00 |
| 13 | 12/25 | 12:00 | 37 | 27 | 69 | 29.96 | SW | 11 | 0.00 |
| 14 | 12/25 | 11:00 | 36 | 28 | 74 | 29.97 | WSW | 11 | 0.00 |
| 15 | 12/25 | 10:00 | 34 | 28 | 79 | 29.98 | W | 4 | 0.00 |
| 16 | 12/25 | 09:00 | 32 | 27 | 82 | 29.97 | SSW | 6 | 0.00 |
| 17 | 12/25 | 08:00 | 29 | 25 | 85 | 29.96 | WSW | 9 | 0.00 |
| 18 | 12/25 | 07:00 | 28 | 24 | 85 | 29.94 | SSW | 3 | 0.00 |
| 19 | 12/25 | 06:00 | 28 | 24 | 86 | 29.93 | W | 4 | 0.00 |
| 20 | 12/25 | 05:00 | 28 | 24 | 88 | 29.91 | W | 4 | 0.00 |
| 21 | 12/25 | 04:00 | 28 | 25 | 92 | 29.90 | SW | 2 | 0.00 |
| 22 | 12/25 | 03:00 | 29 | 27 | 93 | 29.90 | W | 2 | 0.00 |
| 23 | 12/25 | 02:00 | 30 | 26 | 88 | 29.91 | WSW | 1 | 0.00 |
| 24 | 12/25 | 01:00 | 32 | 27 | 84 | 29.89 | WSW | 0 | 0.00 |